sensor_id;sensor_type;location;lat;lon;timestamp;temperature;humidity
25046;DHT22;13044;49.304;12.840;2022-10-16T00:01:34;14.60;99.90
25046;DHT22;13044;49.304;12.840;2022-10-16T00:04:02;14.60;99.90
25046;DHT22;13044;49.304;12.840;2022-10-16T00:06:30;14.60;99.90
25046;DHT22;13044;49.304;12.840;2022-10-16T00:08:58;14.60;99.90
25046;DHT22;13044;49.304;12.840;2022-10-16T00:11:27;14.60;99.90
25046;DHT22;13044;49.304;12.840;2022-10-16T00:13:58;14.60;99.90
25046;DHT22;13044;49.304;12.840;2022-10-16T00:16:28;14.60;99.90
25046;DHT22;13044;49.304;12.840;2022-10-16T00:18:55;14.60;99.90
25046;DHT22;13044;49.304;12.840;2022-10-16T00:21:25;14.60;99.90
25046;DHT22;13044;49.304;12.840;2022-10-16T00:23:56;14.60;99.90
25046;DHT22;13044;49.304;12.840;2022-10-16T00:26:29;14.50;99.90
25046;DHT22;13044;49.304;12.840;2022-10-16T00:28:57;14.50;99.90
25046;DHT22;13044;49.304;12.840;2022-10-16T00:31:24;14.50;99.90
25046;DHT22;13044;49.304;12.840;2022-10-16T00:33:51;14.50;99.90
25046;DHT22;13044;49.304;12.840;2022-10-16T00:36:21;14.50;99.90
25046;DHT22;13044;49.304;12.840;2022-10-16T00:38:51;14.50;99.90
25046;DHT22;13044;49.304;12.840;2022-10-16T00:41:23;14.50;99.90
25046;DHT22;13044;49.304;12.840;2022-10-16T00:44:02;14.40;99.90
25046;DHT22;13044;49.304;12.840;2022-10-16T00:46:39;14.40;99.90
25046;DHT22;13044;49.304;12.840;2022-10-16T00:49:13;14.40;99.90
25046;DHT22;13044;49.304;12.840;2022-10-16T00:51:45;14.40;99.90
25046;DHT22;13044;49.304;12.840;2022-10-16T00:54:22;14.40;99.90
25046;DHT22;13044;49.304;12.840;2022-10-16T00:56:53;14.40;99.90
25046;DHT22;13044;49.304;12.840;2022-10-16T00:59:40;14.30;99.90
25046;DHT22;13044;49.304;12.840;2022-10-16T01:02:10;14.30;99.90
25046;DHT22;13044;49.304;12.840;2022-10-16T01:04:46;14.30;99.90
25046;DHT22;13044;49.304;12.840;2022-10-16T01:10:37;14.40;99.90
25046;DHT22;13044;49.304;12.840;2022-10-16T01:13:37;14.40;99.90
25046;DHT22;13044;49.304;12.840;2022-10-16T01:16:08;14.40;99.90
25046;DHT22;13044;49.304;12.840;2022-10-16T01:19:14;14.40;99.90
25046;DHT22;13044;49.304;12.840;2022-10-16T01:22:02;14.40;99.90
25046;DHT22;13044;49.304;12.840;2022-10-16T01:24:45;14.40;99.90
25046;DHT22;13044;49.304;12.840;2022-10-16T01:27:20;14.40;99.90
25046;DHT22;13044;49.304;12.840;2022-10-16T01:32:52;14.40;99.90
25046;DHT22;13044;49.304;12.840;2022-10-16T01:35:52;14.40;99.90
25046;DHT22;13044;49.304;12.840;2022-10-16T01:38:30;14.40;99.90
25046;DHT22;13044;49.304;12.840;2022-10-16T01:41:06;14.30;99.90
25046;DHT22;13044;49.304;12.840;2022-10-16T01:43:43;14.30;99.90
25046;DHT22;13044;49.304;12.840;2022-10-16T01:46:14;14.30;99.90
25046;DHT22;13044;49.304;12.840;2022-10-16T01:48:43;14.30;99.90
25046;DHT22;13044;49.304;12.840;2022-10-16T01:51:12;14.20;99.90
25046;DHT22;13044;49.304;12.840;2022-10-16T01:53:42;14.20;99.90
25046;DHT22;13044;49.304;12.840;2022-10-16T01:56:13;14.20;99.90
25046;DHT22;13044;49.304;12.840;2022-10-16T01:58:48;14.20;99.90
25046;DHT22;13044;49.304;12.840;2022-10-16T02:01:19;14.20;99.90
25046;DHT22;13044;49.304;12.840;2022-10-16T02:03:53;14.10;99.90
25046;DHT22;13044;49.304;12.840;2022-10-16T02:06:21;14.10;99.90
25046;DHT22;13044;49.304;12.840;2022-10-16T02:08:49;14.10;99.90
25046;DHT22;13044;49.304;12.840;2022-10-16T02:11:16;14.10;99.90
25046;DHT22;13044;49.304;12.840;2022-10-16T02:13:46;14.10;99.90
25046;DHT22;13044;49.304;12.840;2022-10-16T02:16:15;14.10;99.90
25046;DHT22;13044;49.304;12.840;2022-10-16T02:18:43;14.10;99.90
25046;DHT22;13044;49.304;12.840;2022-10-16T02:21:19;14.10;99.90
25046;DHT22;13044;49.304;12.840;2022-10-16T02:24:02;14.10;99.90
25046;DHT22;13044;49.304;12.840;2022-10-16T02:29:25;14.10;99.90
25046;DHT22;13044;49.304;12.840;2022-10-16T02:31:58;14.10;99.90
25046;DHT22;13044;49.304;12.840;2022-10-16T02:34:27;14.10;99.90
25046;DHT22;13044;49.304;12.840;2022-10-16T02:36:55;14.10;99.90
25046;DHT22;13044;49.304;12.840;2022-10-16T02:39:23;14.10;99.90
25046;DHT22;13044;49.304;12.840;2022-10-16T02:41:51;14.00;99.90
25046;DHT22;13044;49.304;12.840;2022-10-16T02:44:18;14.00;99.90
25046;DHT22;13044;49.304;12.840;2022-10-16T02:46:44;14.10;99.90
25046;DHT22;13044;49.304;12.840;2022-10-16T02:49:11;14.10;99.90
25046;DHT22;13044;49.304;12.840;2022-10-16T02:51:38;14.10;99.90
25046;DHT22;13044;49.304;12.840;2022-10-16T02:54:05;14.10;99.90
25046;DHT22;13044;49.304;12.840;2022-10-16T02:56:32;14.10;99.90
25046;DHT22;13044;49.304;12.840;2022-10-16T02:58:59;14.10;99.90
25046;DHT22;13044;49.304;12.840;2022-10-16T03:01:25;14.10;99.90
25046;DHT22;13044;49.304;12.840;2022-10-16T03:03:52;14.00;99.90
25046;DHT22;13044;49.304;12.840;2022-10-16T03:06:19;14.00;99.90
25046;DHT22;13044;49.304;12.840;2022-10-16T03:08:46;14.00;99.90
25046;DHT22;13044;49.304;12.840;2022-10-16T03:11:13;14.00;99.90
25046;DHT22;13044;49.304;12.840;2022-10-16T03:13:39;14.00;99.90
25046;DHT22;13044;49.304;12.840;2022-10-16T03:16:06;14.00;99.90
25046;DHT22;13044;49.304;12.840;2022-10-16T03:18:33;14.00;99.90
25046;DHT22;13044;49.304;12.840;2022-10-16T03:21:00;14.00;99.90
25046;DHT22;13044;49.304;12.840;2022-10-16T03:23:27;14.00;99.90
25046;DHT22;13044;49.304;12.840;2022-10-16T03:25:54;14.00;99.90
25046;DHT22;13044;49.304;12.840;2022-10-16T03:28:21;14.00;99.90
25046;DHT22;13044;49.304;12.840;2022-10-16T03:30:48;14.00;99.90
25046;DHT22;13044;49.304;12.840;2022-10-16T03:33:14;14.00;99.90
25046;DHT22;13044;49.304;12.840;2022-10-16T03:35:41;14.00;99.90
25046;DHT22;13044;49.304;12.840;2022-10-16T03:38:08;14.00;99.90
25046;DHT22;13044;49.304;12.840;2022-10-16T03:40:35;14.00;99.90
25046;DHT22;13044;49.304;12.840;2022-10-16T03:43:02;14.00;99.90
25046;DHT22;13044;49.304;12.840;2022-10-16T03:45:28;14.00;99.90
25046;DHT22;13044;49.304;12.840;2022-10-16T03:47:55;14.00;99.90
25046;DHT22;13044;49.304;12.840;2022-10-16T03:50:22;14.00;99.90
25046;DHT22;13044;49.304;12.840;2022-10-16T03:52:49;14.00;99.90
25046;DHT22;13044;49.304;12.840;2022-10-16T03:55:15;14.00;99.90
25046;DHT22;13044;49.304;12.840;2022-10-16T03:57:42;14.00;99.90
25046;DHT22;13044;49.304;12.840;2022-10-16T04:00:10;14.00;99.90
25046;DHT22;13044;49.304;12.840;2022-10-16T04:02:37;14.00;99.90
25046;DHT22;13044;49.304;12.840;2022-10-16T04:05:04;14.00;99.90
25046;DHT22;13044;49.304;12.840;2022-10-16T04:07:31;14.00;99.90
25046;DHT22;13044;49.304;12.840;2022-10-16T04:09:58;14.00;99.90
25046;DHT22;13044;49.304;12.840;2022-10-16T04:12:26;14.00;99.90
25046;DHT22;13044;49.304;12.840;2022-10-16T04:14:53;14.00;99.90
25046;DHT22;13044;49.304;12.840;2022-10-16T04:17:19;13.90;99.90
25046;DHT22;13044;49.304;12.840;2022-10-16T04:19:47;13.90;99.90
25046;DHT22;13044;49.304;12.840;2022-10-16T04:22:13;13.90;99.90
25046;DHT22;13044;49.304;12.840;2022-10-16T04:24:40;14.00;99.90
25046;DHT22;13044;49.304;12.840;2022-10-16T04:27:07;14.00;99.90
25046;DHT22;13044;49.304;12.840;2022-10-16T04:29:34;14.00;99.90
25046;DHT22;13044;49.304;12.840;2022-10-16T04:32:00;14.00;99.90
25046;DHT22;13044;49.304;12.840;2022-10-16T04:34:27;14.00;99.90
25046;DHT22;13044;49.304;12.840;2022-10-16T04:36:54;14.10;99.90
25046;DHT22;13044;49.304;12.840;2022-10-16T04:39:21;14.10;99.90
25046;DHT22;13044;49.304;12.840;2022-10-16T04:41:47;14.10;99.90
25046;DHT22;13044;49.304;12.840;2022-10-16T04:44:14;14.10;99.90
25046;DHT22;13044;49.304;12.840;2022-10-16T04:46:41;14.10;99.90
25046;DHT22;13044;49.304;12.840;2022-10-16T04:49:08;14.10;99.90
25046;DHT22;13044;49.304;12.840;2022-10-16T04:51:34;14.10;99.90
25046;DHT22;13044;49.304;12.840;2022-10-16T04:54:02;14.10;99.90
25046;DHT22;13044;49.304;12.840;2022-10-16T04:56:29;14.10;99.90
25046;DHT22;13044;49.304;12.840;2022-10-16T04:58:55;14.10;99.90
25046;DHT22;13044;49.304;12.840;2022-10-16T05:01:22;14.10;99.90
25046;DHT22;13044;49.304;12.840;2022-10-16T05:03:49;14.10;99.90
25046;DHT22;13044;49.304;12.840;2022-10-16T05:06:16;14.00;99.90
25046;DHT22;13044;49.304;12.840;2022-10-16T05:08:43;14.00;99.90
25046;DHT22;13044;49.304;12.840;2022-10-16T05:11:09;14.00;99.90
25046;DHT22;13044;49.304;12.840;2022-10-16T05:13:36;14.00;99.90
25046;DHT22;13044;49.304;12.840;2022-10-16T05:16:03;14.00;99.90
25046;DHT22;13044;49.304;12.840;2022-10-16T05:18:30;14.00;99.90
25046;DHT22;13044;49.304;12.840;2022-10-16T05:20:57;14.00;99.90
25046;DHT22;13044;49.304;12.840;2022-10-16T05:23:23;14.00;99.90
25046;DHT22;13044;49.304;12.840;2022-10-16T05:25:55;14.00;99.90
25046;DHT22;13044;49.304;12.840;2022-10-16T05:28:25;14.00;99.90
25046;DHT22;13044;49.304;12.840;2022-10-16T05:30:57;14.00;99.90
25046;DHT22;13044;49.304;12.840;2022-10-16T05:33:25;14.00;99.90
25046;DHT22;13044;49.304;12.840;2022-10-16T05:35:52;14.00;99.90
25046;DHT22;13044;49.304;12.840;2022-10-16T05:38:19;14.00;99.90
25046;DHT22;13044;49.304;12.840;2022-10-16T05:40:52;14.00;99.90
25046;DHT22;13044;49.304;12.840;2022-10-16T05:43:20;14.00;99.90
25046;DHT22;13044;49.304;12.840;2022-10-16T05:45:54;14.00;99.90
25046;DHT22;13044;49.304;12.840;2022-10-16T05:48:25;14.00;99.90
25046;DHT22;13044;49.304;12.840;2022-10-16T05:51:05;14.00;99.90
25046;DHT22;13044;49.304;12.840;2022-10-16T05:53:37;14.10;99.90
25046;DHT22;13044;49.304;12.840;2022-10-16T05:56:06;14.10;99.90
25046;DHT22;13044;49.304;12.840;2022-10-16T05:58:36;14.10;99.90
25046;DHT22;13044;49.304;12.840;2022-10-16T06:01:15;14.10;99.90
25046;DHT22;13044;49.304;12.840;2022-10-16T06:03:43;14.10;99.90
25046;DHT22;13044;49.304;12.840;2022-10-16T06:06:12;14.10;99.90
25046;DHT22;13044;49.304;12.840;2022-10-16T06:08:44;14.10;99.90
25046;DHT22;13044;49.304;12.840;2022-10-16T06:11:16;14.20;99.90
25046;DHT22;13044;49.304;12.840;2022-10-16T06:13:45;14.20;99.90
25046;DHT22;13044;49.304;12.840;2022-10-16T06:16:15;14.20;99.90
25046;DHT22;13044;49.304;12.840;2022-10-16T06:18:42;14.30;99.90
25046;DHT22;13044;49.304;12.840;2022-10-16T06:21:16;14.30;99.90
25046;DHT22;13044;49.304;12.840;2022-10-16T06:23:46;14.30;99.90
25046;DHT22;13044;49.304;12.840;2022-10-16T06:26:17;14.40;99.90
25046;DHT22;13044;49.304;12.840;2022-10-16T06:28:46;14.40;99.90
25046;DHT22;13044;49.304;12.840;2022-10-16T06:31:14;14.40;99.90
25046;DHT22;13044;49.304;12.840;2022-10-16T06:33:41;14.40;99.90
25046;DHT22;13044;49.304;12.840;2022-10-16T06:36:11;14.40;99.90
25046;DHT22;13044;49.304;12.840;2022-10-16T06:38:39;14.40;99.90
25046;DHT22;13044;49.304;12.840;2022-10-16T06:41:07;14.50;99.90
25046;DHT22;13044;49.304;12.840;2022-10-16T06:43:36;14.60;99.90
25046;DHT22;13044;49.304;12.840;2022-10-16T06:46:04;14.70;99.90
25046;DHT22;13044;49.304;12.840;2022-10-16T06:48:34;14.70;99.90
25046;DHT22;13044;49.304;12.840;2022-10-16T06:51:02;14.80;99.90
25046;DHT22;13044;49.304;12.840;2022-10-16T06:53:34;14.90;99.90
25046;DHT22;13044;49.304;12.840;2022-10-16T06:56:15;15.00;99.90
25046;DHT22;13044;49.304;12.840;2022-10-16T06:58:44;15.00;99.90
25046;DHT22;13044;49.304;12.840;2022-10-16T07:01:13;15.10;99.90
25046;DHT22;13044;49.304;12.840;2022-10-16T07:03:41;15.10;99.90
25046;DHT22;13044;49.304;12.840;2022-10-16T07:06:11;15.20;99.90
25046;DHT22;13044;49.304;12.840;2022-10-16T07:08:41;15.20;99.90
25046;DHT22;13044;49.304;12.840;2022-10-16T07:11:14;15.20;99.90
25046;DHT22;13044;49.304;12.840;2022-10-16T07:13:43;15.30;99.90
25046;DHT22;13044;49.304;12.840;2022-10-16T07:16:21;15.40;99.90
25046;DHT22;13044;49.304;12.840;2022-10-16T07:18:50;15.50;99.90
25046;DHT22;13044;49.304;12.840;2022-10-16T07:21:21;15.70;99.90
25046;DHT22;13044;49.304;12.840;2022-10-16T07:23:53;15.80;99.90
25046;DHT22;13044;49.304;12.840;2022-10-16T07:26:21;15.80;99.90
25046;DHT22;13044;49.304;12.840;2022-10-16T07:28:49;15.80;99.90
25046;DHT22;13044;49.304;12.840;2022-10-16T07:31:18;15.90;99.90
25046;DHT22;13044;49.304;12.840;2022-10-16T07:33:48;16.00;99.90
25046;DHT22;13044;49.304;12.840;2022-10-16T07:36:17;16.10;99.90
25046;DHT22;13044;49.304;12.840;2022-10-16T07:38:46;16.10;99.90
25046;DHT22;13044;49.304;12.840;2022-10-16T07:41:16;16.10;99.90
25046;DHT22;13044;49.304;12.840;2022-10-16T07:43:49;16.10;99.90
25046;DHT22;13044;49.304;12.840;2022-10-16T07:46:18;16.10;99.90
25046;DHT22;13044;49.304;12.840;2022-10-16T07:48:46;16.00;99.90
25046;DHT22;13044;49.304;12.840;2022-10-16T07:51:17;16.00;99.90
25046;DHT22;13044;49.304;12.840;2022-10-16T07:53:45;16.10;99.90
25046;DHT22;13044;49.304;12.840;2022-10-16T07:56:14;16.00;99.90
25046;DHT22;13044;49.304;12.840;2022-10-16T07:58:41;16.00;99.90
25046;DHT22;13044;49.304;12.840;2022-10-16T08:01:11;16.00;99.90
25046;DHT22;13044;49.304;12.840;2022-10-16T08:03:48;16.00;99.90
25046;DHT22;13044;49.304;12.840;2022-10-16T08:06:17;15.90;99.90
25046;DHT22;13044;49.304;12.840;2022-10-16T08:08:50;15.90;99.90
25046;DHT22;13044;49.304;12.840;2022-10-16T08:11:18;15.90;99.90
25046;DHT22;13044;49.304;12.840;2022-10-16T08:13:45;16.00;99.90
25046;DHT22;13044;49.304;12.840;2022-10-16T08:16:12;16.10;99.90
25046;DHT22;13044;49.304;12.840;2022-10-16T08:18:40;16.20;99.90
25046;DHT22;13044;49.304;12.840;2022-10-16T08:21:14;16.20;99.90
25046;DHT22;13044;49.304;12.840;2022-10-16T08:23:47;16.20;99.90
25046;DHT22;13044;49.304;12.840;2022-10-16T08:26:22;16.30;99.90
25046;DHT22;13044;49.304;12.840;2022-10-16T08:28:50;16.30;99.90
25046;DHT22;13044;49.304;12.840;2022-10-16T08:31:18;16.30;99.90
25046;DHT22;13044;49.304;12.840;2022-10-16T08:33:45;16.30;99.90
25046;DHT22;13044;49.304;12.840;2022-10-16T08:36:14;16.50;99.90
25046;DHT22;13044;49.304;12.840;2022-10-16T08:38:41;16.60;99.90
25046;DHT22;13044;49.304;12.840;2022-10-16T08:47:48;16.70;99.90
25046;DHT22;13044;49.304;12.840;2022-10-16T08:50:25;16.80;99.90
25046;DHT22;13044;49.304;12.840;2022-10-16T08:52:55;16.70;99.90
25046;DHT22;13044;49.304;12.840;2022-10-16T08:55:50;16.70;99.90
25046;DHT22;13044;49.304;12.840;2022-10-16T08:58:21;16.70;99.90
25046;DHT22;13044;49.304;12.840;2022-10-16T09:01:00;16.70;99.90
25046;DHT22;13044;49.304;12.840;2022-10-16T09:09:43;16.90;99.90
25046;DHT22;13044;49.304;12.840;2022-10-16T09:11:58;16.90;99.90
25046;DHT22;13044;49.304;12.840;2022-10-16T09:17:48;16.80;99.90
25046;DHT22;13044;49.304;12.840;2022-10-16T09:23:18;16.70;99.90
25046;DHT22;13044;49.304;12.840;2022-10-16T09:25:49;16.70;99.90
25046;DHT22;13044;49.304;12.840;2022-10-16T09:28:18;16.70;99.90
25046;DHT22;13044;49.304;12.840;2022-10-16T09:30:46;16.80;99.90
25046;DHT22;13044;49.304;12.840;2022-10-16T09:33:15;16.80;99.90
25046;DHT22;13044;49.304;12.840;2022-10-16T09:35:46;16.90;99.90
25046;DHT22;13044;49.304;12.840;2022-10-16T09:38:35;16.90;99.90
25046;DHT22;13044;49.304;12.840;2022-10-16T09:41:18;17.00;99.90
25046;DHT22;13044;49.304;12.840;2022-10-16T09:43:53;17.00;99.90
25046;DHT22;13044;49.304;12.840;2022-10-16T09:46:24;17.20;99.90
25046;DHT22;13044;49.304;12.840;2022-10-16T09:48:58;17.40;99.90
25046;DHT22;13044;49.304;12.840;2022-10-16T09:51:36;17.40;99.90
25046;DHT22;13044;49.304;12.840;2022-10-16T09:56:37;17.60;99.90
25046;DHT22;13044;49.304;12.840;2022-10-16T09:59:15;17.90;99.90
25046;DHT22;13044;49.304;12.840;2022-10-16T10:01:52;18.00;99.90
25046;DHT22;13044;49.304;12.840;2022-10-16T10:04:23;18.40;99.90
25046;DHT22;13044;49.304;12.840;2022-10-16T10:06:54;18.50;99.90
25046;DHT22;13044;49.304;12.840;2022-10-16T10:09:27;18.60;99.90
25046;DHT22;13044;49.304;12.840;2022-10-16T10:14:39;18.50;99.90
25046;DHT22;13044;49.304;12.840;2022-10-16T10:17:12;18.50;99.90
25046;DHT22;13044;49.304;12.840;2022-10-16T10:42:48;18.50;99.90
25046;DHT22;13044;49.304;12.840;2022-10-16T10:45:44;18.60;99.90
25046;DHT22;13044;49.304;12.840;2022-10-16T10:48:21;18.60;99.90
25046;DHT22;13044;49.304;12.840;2022-10-16T10:52:05;18.70;99.90
25046;DHT22;13044;49.304;12.840;2022-10-16T10:54:39;18.70;99.90
25046;DHT22;13044;49.304;12.840;2022-10-16T10:57:29;18.80;99.90
25046;DHT22;13044;49.304;12.840;2022-10-16T11:00:10;18.80;99.90
25046;DHT22;13044;49.304;12.840;2022-10-16T11:08:55;19.10;99.90
25046;DHT22;13044;49.304;12.840;2022-10-16T11:11:36;19.40;99.90
25046;DHT22;13044;49.304;12.840;2022-10-16T11:16:54;19.40;99.90
25046;DHT22;13044;49.304;12.840;2022-10-16T11:25:39;19.30;99.90
25046;DHT22;13044;49.304;12.840;2022-10-16T11:30:57;19.40;99.90
25046;DHT22;13044;49.304;12.840;2022-10-16T11:33:45;19.30;99.90
25046;DHT22;13044;49.304;12.840;2022-10-16T11:36:29;19.30;99.90
25046;DHT22;13044;49.304;12.840;2022-10-16T11:39:11;19.40;99.90
25046;DHT22;13044;49.304;12.840;2022-10-16T11:42:03;19.40;99.90
25046;DHT22;13044;49.304;12.840;2022-10-16T11:47:24;19.60;99.90
25046;DHT22;13044;49.304;12.840;2022-10-16T11:50:39;19.80;99.90
25046;DHT22;13044;49.304;12.840;2022-10-16T11:56:38;20.00;99.90
25046;DHT22;13044;49.304;12.840;2022-10-16T11:59:26;19.80;99.90
25046;DHT22;13044;49.304;12.840;2022-10-16T12:08:15;19.70;99.90
25046;DHT22;13044;49.304;12.840;2022-10-16T12:10:45;19.60;99.90
25046;DHT22;13044;49.304;12.840;2022-10-16T12:13:38;19.50;99.90
25046;DHT22;13044;49.304;12.840;2022-10-16T12:16:26;19.60;99.90
25046;DHT22;13044;49.304;12.840;2022-10-16T12:19:11;19.60;99.90
25046;DHT22;13044;49.304;12.840;2022-10-16T12:21:40;19.60;99.90
25046;DHT22;13044;49.304;12.840;2022-10-16T12:24:36;19.70;99.90
25046;DHT22;13044;49.304;12.840;2022-10-16T12:27:17;19.80;99.90
25046;DHT22;13044;49.304;12.840;2022-10-16T12:30:20;20.00;99.90
25046;DHT22;13044;49.304;12.840;2022-10-16T12:33:01;19.90;99.90
25046;DHT22;13044;49.304;12.840;2022-10-16T12:35:34;20.10;99.90
25046;DHT22;13044;49.304;12.840;2022-10-16T12:38:44;20.10;99.90
25046;DHT22;13044;49.304;12.840;2022-10-16T12:41:12;20.10;99.90
25046;DHT22;13044;49.304;12.840;2022-10-16T12:43:56;20.00;99.90
25046;DHT22;13044;49.304;12.840;2022-10-16T12:46:26;20.10;99.90
25046;DHT22;13044;49.304;12.840;2022-10-16T12:51:42;20.20;99.90
25046;DHT22;13044;49.304;12.840;2022-10-16T12:54:17;20.30;99.90
25046;DHT22;13044;49.304;12.840;2022-10-16T13:05:32;20.30;99.90
25046;DHT22;13044;49.304;12.840;2022-10-16T13:11:47;20.30;99.90
25046;DHT22;13044;49.304;12.840;2022-10-16T13:21:17;20.00;99.90
25046;DHT22;13044;49.304;12.840;2022-10-16T13:26:59;20.20;99.90
25046;DHT22;13044;49.304;12.840;2022-10-16T13:29:58;20.00;99.90
25046;DHT22;13044;49.304;12.840;2022-10-16T13:32:28;19.80;99.90
25046;DHT22;13044;49.304;12.840;2022-10-16T13:34:55;19.70;99.90
25046;DHT22;13044;49.304;12.840;2022-10-16T13:37:25;19.60;99.90
25046;DHT22;13044;49.304;12.840;2022-10-16T13:40:09;19.60;99.90
25046;DHT22;13044;49.304;12.840;2022-10-16T13:42:45;19.60;99.90
25046;DHT22;13044;49.304;12.840;2022-10-16T13:45:25;19.60;99.90
25046;DHT22;13044;49.304;12.840;2022-10-16T13:48:06;19.60;99.90
25046;DHT22;13044;49.304;12.840;2022-10-16T13:50:36;19.60;99.90
25046;DHT22;13044;49.304;12.840;2022-10-16T13:53:04;19.60;99.90
25046;DHT22;13044;49.304;12.840;2022-10-16T13:55:38;19.60;99.90
25046;DHT22;13044;49.304;12.840;2022-10-16T13:58:12;19.50;99.90
25046;DHT22;13044;49.304;12.840;2022-10-16T14:00:51;19.60;99.90
25046;DHT22;13044;49.304;12.840;2022-10-16T14:03:26;19.60;99.90
25046;DHT22;13044;49.304;12.840;2022-10-16T14:05:56;19.50;99.90
25046;DHT22;13044;49.304;12.840;2022-10-16T14:08:26;19.40;99.90
25046;DHT22;13044;49.304;12.840;2022-10-16T14:10:56;19.40;99.90
25046;DHT22;13044;49.304;12.840;2022-10-16T14:13:45;19.40;99.90
25046;DHT22;13044;49.304;12.840;2022-10-16T14:16:18;19.40;99.90
25046;DHT22;13044;49.304;12.840;2022-10-16T14:19:00;19.50;99.90
25046;DHT22;13044;49.304;12.840;2022-10-16T14:21:29;19.50;99.90
25046;DHT22;13044;49.304;12.840;2022-10-16T14:23:56;19.50;99.90
25046;DHT22;13044;49.304;12.840;2022-10-16T14:26:26;19.40;99.90
25046;DHT22;13044;49.304;12.840;2022-10-16T14:29:15;19.30;99.90
25046;DHT22;13044;49.304;12.840;2022-10-16T14:31:56;19.30;99.90
25046;DHT22;13044;49.304;12.840;2022-10-16T14:34:32;19.30;99.90
25046;DHT22;13044;49.304;12.840;2022-10-16T14:37:23;19.30;99.90
25046;DHT22;13044;49.304;12.840;2022-10-16T14:39:54;19.20;99.90
25046;DHT22;13044;49.304;12.840;2022-10-16T14:42:24;19.10;99.90
25046;DHT22;13044;49.304;12.840;2022-10-16T14:44:53;19.10;99.90
25046;DHT22;13044;49.304;12.840;2022-10-16T14:47:23;19.10;99.90
25046;DHT22;13044;49.304;12.840;2022-10-16T14:49:54;19.00;99.90
25046;DHT22;13044;49.304;12.840;2022-10-16T14:52:22;19.10;99.90
25046;DHT22;13044;49.304;12.840;2022-10-16T14:54:49;19.10;99.90
25046;DHT22;13044;49.304;12.840;2022-10-16T14:57:19;19.00;99.90
25046;DHT22;13044;49.304;12.840;2022-10-16T14:59:48;19.00;99.90
25046;DHT22;13044;49.304;12.840;2022-10-16T15:02:30;19.00;99.90
25046;DHT22;13044;49.304;12.840;2022-10-16T15:04:57;18.90;99.90
25046;DHT22;13044;49.304;12.840;2022-10-16T15:07:31;18.90;99.90
25046;DHT22;13044;49.304;12.840;2022-10-16T15:09:58;18.80;99.90
25046;DHT22;13044;49.304;12.840;2022-10-16T15:12:25;18.80;99.90
25046;DHT22;13044;49.304;12.840;2022-10-16T15:14:52;18.80;99.90
25046;DHT22;13044;49.304;12.840;2022-10-16T15:17:18;18.70;99.90
25046;DHT22;13044;49.304;12.840;2022-10-16T15:19:47;18.70;99.90
25046;DHT22;13044;49.304;12.840;2022-10-16T15:22:14;18.60;99.90
25046;DHT22;13044;49.304;12.840;2022-10-16T15:24:41;18.50;99.90
25046;DHT22;13044;49.304;12.840;2022-10-16T15:27:08;18.50;99.90
25046;DHT22;13044;49.304;12.840;2022-10-16T15:29:34;18.40;99.90
25046;DHT22;13044;49.304;12.840;2022-10-16T15:32:01;18.40;99.90
25046;DHT22;13044;49.304;12.840;2022-10-16T15:34:28;18.30;99.90
25046;DHT22;13044;49.304;12.840;2022-10-16T15:36:55;18.20;99.90
25046;DHT22;13044;49.304;12.840;2022-10-16T15:39:24;18.20;99.90
25046;DHT22;13044;49.304;12.840;2022-10-16T15:41:50;18.10;99.90
25046;DHT22;13044;49.304;12.840;2022-10-16T15:44:20;18.00;99.90
25046;DHT22;13044;49.304;12.840;2022-10-16T15:46:49;17.90;99.90
25046;DHT22;13044;49.304;12.840;2022-10-16T15:49:16;17.80;99.90
25046;DHT22;13044;49.304;12.840;2022-10-16T15:51:44;17.70;99.90
25046;DHT22;13044;49.304;12.840;2022-10-16T15:54:12;17.70;99.90
25046;DHT22;13044;49.304;12.840;2022-10-16T15:56:39;17.60;99.90
25046;DHT22;13044;49.304;12.840;2022-10-16T15:59:06;17.60;99.90
25046;DHT22;13044;49.304;12.840;2022-10-16T16:01:34;17.50;99.90
25046;DHT22;13044;49.304;12.840;2022-10-16T16:04:02;17.40;99.90
25046;DHT22;13044;49.304;12.840;2022-10-16T16:06:41;17.40;99.90
25046;DHT22;13044;49.304;12.840;2022-10-16T16:09:12;17.30;99.90
25046;DHT22;13044;49.304;12.840;2022-10-16T16:11:40;17.30;99.90
25046;DHT22;13044;49.304;12.840;2022-10-16T16:14:11;17.20;99.90
25046;DHT22;13044;49.304;12.840;2022-10-16T16:16:39;17.10;99.90
25046;DHT22;13044;49.304;12.840;2022-10-16T16:19:07;17.10;99.90
25046;DHT22;13044;49.304;12.840;2022-10-16T16:21:37;17.00;99.90
25046;DHT22;13044;49.304;12.840;2022-10-16T16:24:04;17.00;99.90
25046;DHT22;13044;49.304;12.840;2022-10-16T16:26:36;16.90;99.90
25046;DHT22;13044;49.304;12.840;2022-10-16T16:29:06;16.90;99.90
25046;DHT22;13044;49.304;12.840;2022-10-16T16:31:33;16.80;99.90
25046;DHT22;13044;49.304;12.840;2022-10-16T16:34:01;16.70;99.90
25046;DHT22;13044;49.304;12.840;2022-10-16T16:36:28;16.70;99.90
25046;DHT22;13044;49.304;12.840;2022-10-16T16:38:55;16.70;99.90
25046;DHT22;13044;49.304;12.840;2022-10-16T16:41:26;16.60;99.90
25046;DHT22;13044;49.304;12.840;2022-10-16T16:43:55;16.60;99.90
25046;DHT22;13044;49.304;12.840;2022-10-16T16:46:22;16.50;99.90
25046;DHT22;13044;49.304;12.840;2022-10-16T16:48:49;16.40;99.90
25046;DHT22;13044;49.304;12.840;2022-10-16T16:51:17;16.30;99.90
25046;DHT22;13044;49.304;12.840;2022-10-16T16:53:47;16.30;99.90
25046;DHT22;13044;49.304;12.840;2022-10-16T16:56:17;16.30;99.90
25046;DHT22;13044;49.304;12.840;2022-10-16T16:58:48;16.30;99.90
25046;DHT22;13044;49.304;12.840;2022-10-16T17:01:16;16.20;99.90
25046;DHT22;13044;49.304;12.840;2022-10-16T17:03:49;16.20;99.90
25046;DHT22;13044;49.304;12.840;2022-10-16T17:06:26;16.20;99.90
25046;DHT22;13044;49.304;12.840;2022-10-16T17:08:53;16.10;99.90
25046;DHT22;13044;49.304;12.840;2022-10-16T17:11:23;16.10;99.90
25046;DHT22;13044;49.304;12.840;2022-10-16T17:13:52;16.00;99.90
25046;DHT22;13044;49.304;12.840;2022-10-16T17:16:30;16.00;99.90
25046;DHT22;13044;49.304;12.840;2022-10-16T17:19:04;15.90;99.90
25046;DHT22;13044;49.304;12.840;2022-10-16T17:21:33;15.90;99.90
25046;DHT22;13044;49.304;12.840;2022-10-16T17:24:00;15.90;99.90
25046;DHT22;13044;49.304;12.840;2022-10-16T17:26:27;15.90;99.90
25046;DHT22;13044;49.304;12.840;2022-10-16T17:28:57;15.80;99.90
25046;DHT22;13044;49.304;12.840;2022-10-16T17:31:27;15.80;99.90
25046;DHT22;13044;49.304;12.840;2022-10-16T17:33:58;15.80;99.90
25046;DHT22;13044;49.304;12.840;2022-10-16T17:36:27;15.70;99.90